Time;durP1;ratioP1;P1;durP2;ratioP2;P2;SDS_P1;SDS_P2;PMS_P1;PMS_P2;Temp;Humidity;BMP_temperature;BMP_pressure;BME280_temperature;BME280_humidity;BME280_pressure;Samples;Min_cycle;Max_cycle;Signal;HPM_P1;HPM_P2
2022/01/30 00:00:56;;;;;;;;;7.00;5.25;;;;;9.95;100.00;102888.84;5111639;27;44766;-84
2022/01/30 00:03:21;;;;;;;;;7.75;7.75;;;;;10.00;100.00;102891.38;5105717;27;46222;-85
2022/01/30 00:05:47;;;;;;;;;7.00;7.00;;;;;9.98;100.00;102871.97;5100178;27;45327;-85
2022/01/30 00:08:12;;;;;;;;;9.00;9.00;;;;;9.87;100.00;102869.66;5098705;27;45354;-84
2022/01/30 00:10:40;;;;;;;;;8.75;8.75;;;;;9.84;100.00;102867.06;5079729;27;45410;-85
2022/01/30 00:13:10;;;;;;;;;10.75;9.00;;;;;9.79;100.00;102869.88;5079149;27;45544;-84
2022/01/30 00:15:40;;;;;;;;;5.20;5.20;;;;;9.78;100.00;102877.88;5098988;27;44768;-84
2022/01/30 00:18:18;;;;;;;;;6.80;6.60;;;;;9.78;100.00;102864.59;5097956;27;45453;-85
2022/01/30 00:20:48;;;;;;;;;6.60;6.60;;;;;9.77;100.00;102873.50;5098509;27;44797;-83
2022/01/30 00:23:19;;;;;;;;;6.60;6.60;;;;;9.74;100.00;102868.25;5098120;27;45507;-85
2022/01/30 00:25:53;;;;;;;;;11.20;10.00;;;;;9.72;100.00;102868.31;5080478;27;45432;-85
2022/01/30 00:28:22;;;;;;;;;6.80;6.40;;;;;9.77;100.00;102873.50;5103054;27;45422;-83
2022/01/30 00:30:48;;;;;;;;;7.00;7.00;;;;;9.75;100.00;102878.81;5100274;27;45403;-82
2022/01/30 00:33:13;;;;;;;;;8.80;8.80;;;;;9.75;100.00;102872.66;5078693;27;47038;-84
2022/01/30 00:35:39;;;;;;;;;9.75;9.00;;;;;9.76;100.00;102875.25;5097118;27;45331;-84
2022/01/30 00:38:10;;;;;;;;;7.00;7.00;;;;;9.74;100.00;102869.13;5079306;27;45461;-83
2022/01/30 00:40:36;;;;;;;;;8.00;6.75;;;;;9.72;100.00;102870.97;5098313;27;44837;-86
2022/01/30 00:43:01;;;;;;;;;9.00;9.00;;;;;9.76;100.00;102863.75;5098448;27;45299;-85
2022/01/30 00:45:27;;;;;;;;;8.25;7.00;;;;;9.73;100.00;102861.22;5099918;27;44781;-84
2022/01/30 00:47:52;;;;;;;;;9.00;8.00;;;;;9.76;100.00;102861.97;5098525;27;44911;-82
2022/01/30 00:50:18;;;;;;;;;8.00;6.00;;;;;9.72;100.00;102872.75;5098867;27;44837;-85
2022/01/30 00:52:43;;;;;;;;;8.00;8.00;;;;;9.72;100.00;102860.34;5080008;27;46581;-83
2022/01/30 00:55:09;;;;;;;;;8.75;8.75;;;;;9.71;100.00;102858.59;5080746;27;45404;-80
2022/01/30 00:57:34;;;;;;;;;4.75;4.00;;;;;9.70;100.00;102854.19;5101305;27;45366;-80
2022/01/30 00:59:59;;;;;;;;;8.00;8.00;;;;;9.69;100.00;102855.13;5081806;27;45421;-81
2022/01/30 01:02:25;;;;;;;;;10.50;8.50;;;;;9.71;100.00;102847.09;5079108;27;45236;-81
2022/01/30 01:04:50;;;;;;;;;5.00;5.00;;;;;9.68;100.00;102837.47;5096780;27;45315;-81
2022/01/30 01:07:21;;;;;;;;;8.50;7.00;;;;;9.63;100.00;102847.34;5077802;27;44689;-80
2022/01/30 01:09:57;;;;;;;;;4.00;4.00;;;;;9.63;100.00;102843.81;5095688;27;44873;-81
2022/01/30 01:23:24;;;;;;;;;11.25;9.75;;;;;9.46;100.00;102831.03;5013438;28;45033;-82
2022/01/30 01:25:50;;;;;;;;;11.60;9.80;;;;;9.45;100.00;102824.84;5000028;28;45330;-81
2022/01/30 01:28:15;;;;;;;;;7.00;7.00;;;;;9.45;100.00;102824.00;5017193;28;44771;-81
2022/01/30 01:30:41;;;;;;;;;5.25;4.75;;;;;9.44;100.00;102830.22;5014295;28;44945;-81
2022/01/30 01:33:06;;;;;;;;;8.00;8.00;;;;;9.44;100.00;102831.09;5013475;28;45266;-81
2022/01/30 01:35:32;;;;;;;;;9.00;7.00;;;;;9.45;100.00;102830.16;5013287;28;44765;-81
2022/01/30 01:37:57;;;;;;;;;7.50;7.50;;;;;9.44;100.00;102832.88;5013713;28;44798;-81
2022/01/30 01:40:23;;;;;;;;;8.75;8.75;;;;;9.43;100.00;102824.06;5013547;28;45334;-81
2022/01/30 01:42:49;;;;;;;;;12.00;9.00;;;;;9.45;100.00;102831.94;5013326;28;45411;-79
2022/01/30 01:45:19;;;;;;;;;11.50;9.25;;;;;9.43;100.00;102824.06;5012873;28;45395;-81
2022/01/30 01:47:46;;;;;;;;;10.00;9.00;;;;;9.41;100.00;102825.00;4996850;28;45267;-80
2022/01/30 01:50:17;;;;;;;;;7.25;7.25;;;;;9.39;100.00;102829.47;5016872;28;45360;-82
2022/01/30 01:52:45;;;;;;;;;5.25;5.25;;;;;9.41;100.00;102827.66;5016775;28;45162;-81
2022/01/30 01:55:10;;;;;;;;;10.40;9.00;;;;;9.39;100.00;102833.00;5070282;27;45534;-80
2022/01/30 01:57:36;;;;;;;;;12.25;11.00;;;;;9.42;100.00;102837.34;5105272;27;44737;-80
2022/01/30 02:00:03;;;;;;;;;14.50;12.50;;;;;9.43;100.00;102828.50;5106632;27;45393;-81
2022/01/30 02:02:29;;;;;;;;;11.50;11.50;;;;;9.41;100.00;102825.84;5102877;27;44991;-80
2022/01/30 02:04:58;;;;;;;;;9.50;9.50;;;;;9.44;100.00;102836.41;5099612;27;45398;-81
2022/01/30 02:10:19;;;;;;;;;13.25;11.50;;;;;9.47;100.00;102825.66;5099452;27;45217;-81
2022/01/30 02:12:50;;;;;;;;;8.00;6.50;;;;;9.45;100.00;102822.22;5080238;27;45336;-80
2022/01/30 02:26:01;;;;;;;;;15.80;12.40;;;;;9.51;100.00;102808.75;5099359;27;44739;-81
2022/01/30 02:28:29;;;;;;;;;8.80;7.40;;;;;9.55;100.00;102813.97;5098736;27;44789;-80
2022/01/30 02:31:01;;;;;;;;;10.00;9.00;;;;;9.53;100.00;102806.09;5100959;27;45469;-80
2022/01/30 02:33:26;;;;;;;;;7.75;7.00;;;;;9.56;100.00;102805.09;5101810;27;45454;-81
2022/01/30 02:35:52;;;;;;;;;11.75;10.75;;;;;9.59;100.00;102797.94;5080596;27;44841;-81
2022/01/30 02:38:22;;;;;;;;;10.75;10.75;;;;;9.65;100.00;102802.19;5099072;27;45359;-80
2022/01/30 02:40:50;;;;;;;;;9.75;9.00;;;;;9.65;100.00;102799.53;5099001;27;44853;-81
2022/01/30 02:43:19;;;;;;;;;10.80;8.60;;;;;9.68;100.00;102796.78;5098791;27;45278;-79
2022/01/30 02:45:51;;;;;;;;;7.60;6.20;;;;;9.73;100.00;102797.53;5098278;27;45442;-81
2022/01/30 02:48:29;;;;;;;;;9.80;9.80;;;;;9.75;100.00;102793.03;5098629;27;45520;-80
2022/01/30 02:51:07;;;;;;;;;14.00;13.00;;;;;9.75;100.00;102793.03;5080643;27;45009;-80
2022/01/30 02:53:38;;;;;;;;;8.80;8.60;;;;;9.72;100.00;102801.97;5099018;27;45324;-81
2022/01/30 02:56:04;;;;;;;;;15.20;12.00;;;;;9.72;100.00;102811.72;5098263;27;44793;-80
2022/01/30 02:58:29;;;;;;;;;9.25;8.75;;;;;9.68;100.00;102808.28;5098675;27;45429;-79
2022/01/30 03:00:54;;;;;;;;;13.50;13.50;;;;;9.65;100.00;102803.03;5099839;27;45487;-81
2022/01/30 03:03:20;;;;;;;;;14.00;12.50;;;;;9.68;100.00;102810.94;5103214;27;45178;-81
2022/01/30 03:05:45;;;;;;;;;11.25;11.25;;;;;9.68;100.00;102802.97;5104101;27;45406;-79
2022/01/30 03:08:11;;;;;;;;;15.50;12.50;;;;;9.69;100.00;102803.84;5102904;27;45130;-80
2022/01/30 03:10:36;;;;;;;;;14.75;13.50;;;;;9.67;100.00;102811.84;5103648;27;45303;-81
2022/01/30 03:13:02;;;;;;;;;16.50;12.00;;;;;9.62;100.00;102804.91;5102960;27;45413;-81
2022/01/30 03:15:27;;;;;;;;;18.00;18.00;;;;;9.61;100.00;102808.50;5101524;27;45204;-79
2022/01/30 03:17:53;;;;;;;;;14.75;12.25;;;;;9.62;100.00;102811.13;5083676;27;44812;-80
2022/01/30 03:20:18;;;;;;;;;16.00;14.75;;;;;9.64;100.00;102813.72;5082335;27;44988;-80
2022/01/30 03:22:43;;;;;;;;;10.00;10.00;;;;;9.65;100.00;102807.50;5098380;27;45416;-81
2022/01/30 03:25:09;;;;;;;;;11.25;7.75;;;;;9.66;100.00;102806.56;5098289;27;45425;-80
2022/01/30 03:27:34;;;;;;;;;16.00;14.00;;;;;9.62;100.00;102804.91;5098272;27;45137;-81
2022/01/30 03:30:07;;;;;;;;;17.75;14.75;;;;;9.63;100.00;102802.25;5098239;27;45330;-80
2022/01/30 03:32:34;;;;;;;;;18.75;15.25;;;;;9.63;100.00;102809.34;5098128;27;45265;-81
2022/01/30 03:34:59;;;;;;;;;16.80;12.20;;;;;9.66;100.00;102822.50;5097995;27;45378;-81
2022/01/30 03:37:25;;;;;;;;;14.75;9.75;;;;;9.68;100.00;102823.34;5080393;27;45323;-81
2022/01/30 03:39:50;;;;;;;;;13.75;9.75;;;;;9.67;100.00;102809.19;5102795;27;45189;-79
2022/01/30 03:42:15;;;;;;;;;12.75;9.00;;;;;9.66;100.00;102803.91;5098929;27;45371;-79
2022/01/30 03:44:41;;;;;;;;;10.75;9.25;;;;;9.59;100.00;102805.03;5097957;27;45402;-80
2022/01/30 03:47:06;;;;;;;;;12.75;11.25;;;;;9.62;100.00;102811.13;5098358;27;45897;-79
2022/01/30 03:49:33;;;;;;;;;13.00;12.00;;;;;9.61;100.00;102800.53;5098209;27;45197;-79
2022/01/30 03:51:58;;;;;;;;;17.00;14.25;;;;;9.62;100.00;102797.84;5097392;27;45239;-79
2022/01/30 03:54:23;;;;;;;;;14.75;11.75;;;;;9.63;100.00;102806.69;5078909;27;45374;-79
2022/01/30 03:56:49;;;;;;;;;12.25;10.25;;;;;9.61;100.00;102793.44;5097923;27;45428;-79
2022/01/30 03:59:15;;;;;;;;;8.75;4.00;;;;;9.60;100.00;102791.69;5097571;27;45649;-79
2022/01/30 04:01:40;;;;;;;;;11.00;7.50;;;;;9.58;100.00;102798.84;5097170;27;45192;-79
2022/01/30 04:04:05;;;;;;;;;11.25;5.00;;;;;9.57;100.00;102794.44;5097852;27;44842;-80
2022/01/30 04:06:31;;;;;;;;;8.00;5.00;;;;;9.51;100.00;102789.31;5079293;27;44835;-80
2022/01/30 04:08:57;;;;;;;;;6.75;4.75;;;;;9.49;100.00;102789.38;5097437;27;45411;-79
2022/01/30 04:11:22;;;;;;;;;4.00;3.00;;;;;9.45;100.00;102802.78;5098796;27;45419;-80
2022/01/30 04:13:48;;;;;;;;;9.50;4.25;;;;;9.40;100.00;102808.22;5103465;27;45361;-80
2022/01/30 04:16:14;;;;;;;;;3.20;2.00;;;;;9.40;100.00;102799.38;5102836;27;44768;-79
2022/01/30 04:18:39;;;;;;;;;7.00;3.00;;;;;9.36;100.00;102798.59;5099182;27;45360;-79
2022/01/30 04:21:05;;;;;;;;;5.50;4.00;;;;;9.35;100.00;102794.22;5096753;27;45054;-80
2022/01/30 04:23:30;;;;;;;;;8.75;4.75;;;;;9.30;100.00;102801.44;5097069;27;45292;-80
2022/01/30 04:25:56;;;;;;;;;11.50;3.75;;;;;9.17;100.00;102798.25;5097024;27;45437;-80
2022/01/30 04:28:21;;;;;;;;;4.00;2.00;;;;;9.20;100.00;102795.50;5078910;27;44757;-79
2022/01/30 04:30:47;;;;;;;;;6.25;5.00;;;;;9.15;100.00;102802.72;5096909;27;45074;-80
2022/01/30 04:33:13;;;;;;;;;1.00;1.00;;;;;9.12;100.00;102813.41;5096735;27;44801;-80
2022/01/30 04:35:39;;;;;;;;;3.50;3.25;;;;;9.11;100.00;102811.69;5097361;27;44709;-80
2022/01/30 04:38:16;;;;;;;;;5.75;2.75;;;;;9.07;100.00;102823.28;5096543;27;45648;-80
2022/01/30 04:59:49;;;;;;;;;3.20;2.20;;;;;8.93;100.00;102813.03;5033809;28;45273;-80
2022/01/30 05:09:50;;;;;;;;;3.50;2.00;;;;;8.89;100.00;102815.81;5033638;28;44813;-78
2022/01/30 05:12:16;;;;;;;;;12.25;6.75;;;;;8.86;100.00;102831.81;5032864;28;45106;-79
2022/01/30 05:14:42;;;;;;;;;7.00;4.00;;;;;8.84;100.00;102821.22;5033070;28;45293;-80
2022/01/30 05:17:08;;;;;;;;;10.00;4.60;;;;;8.81;100.00;102823.97;5033173;28;45526;-79
2022/01/30 05:19:33;;;;;;;;;5.00;1.75;;;;;8.80;100.00;102827.53;5033548;28;45335;-79
2022/01/30 05:21:59;;;;;;;;;5.00;2.50;;;;;8.80;100.00;102822.25;5016334;28;45387;-79
2022/01/30 05:24:25;;;;;;;;;4.50;2.25;;;;;8.80;100.00;102830.19;5039503;28;45479;-79
2022/01/30 05:26:51;;;;;;;;;3.50;2.50;;;;;8.78;100.00;102829.34;5040426;28;45371;-80
2022/01/30 05:29:17;;;;;;;;;2.00;2.00;;;;;8.72;100.00;102840.13;5038324;28;45529;-80
2022/01/30 05:31:43;;;;;;;;;1.00;1.00;;;;;8.71;100.00;102841.91;5084412;27;44939;-79
2022/01/30 05:34:08;;;;;;;;;2.00;2.00;;;;;8.70;100.00;102848.09;5099841;27;45371;-80
2022/01/30 05:36:37;;;;;;;;;4.50;2.50;;;;;8.70;100.00;102845.47;5099685;27;44806;-80
2022/01/30 05:39:04;;;;;;;;;4.60;3.00;;;;;8.67;100.00;102840.22;5100153;27;45364;-80
2022/01/30 05:41:30;;;;;;;;;6.40;4.20;;;;;8.68;100.00;102846.41;5099163;27;45349;-80
2022/01/30 05:43:58;;;;;;;;;6.75;2.50;;;;;8.68;100.00;102854.34;5099230;27;45531;-79
2022/01/30 05:46:39;;;;;;;;;4.40;3.80;;;;;8.66;100.00;102846.44;5099746;27;45448;-79
2022/01/30 05:49:06;;;;;;;;;2.50;2.00;;;;;8.68;100.00;102847.25;5099685;27;44746;-80
2022/01/30 05:51:32;;;;;;;;;8.50;3.00;;;;;8.67;100.00;102847.31;5099251;27;45466;-79
2022/01/30 05:53:57;;;;;;;;;2.25;2.25;;;;;8.64;100.00;102850.88;5099898;27;45316;-79
2022/01/30 05:56:22;;;;;;;;;3.25;2.00;;;;;8.63;100.00;102845.63;5081108;27;45360;-80
2022/01/30 05:58:49;;;;;;;;;5.00;2.00;;;;;8.59;100.00;102855.44;5100142;27;44732;-80
2022/01/30 06:01:14;;;;;;;;;4.50;4.00;;;;;8.58;100.00;102856.34;5100868;27;45380;-79
2022/01/30 06:03:40;;;;;;;;;5.50;3.00;;;;;8.55;100.00;102852.91;5106613;27;45340;-81
2022/01/30 06:06:07;;;;;;;;;2.00;1.00;;;;;8.56;100.00;102854.63;5104425;27;45219;-80
2022/01/30 06:08:43;;;;;;;;;3.00;1.75;;;;;8.55;100.00;102860.84;5101611;27;44868;-79
2022/01/30 06:11:10;;;;;;;;;4.60;2.20;;;;;8.53;100.00;102849.44;5084511;27;45207;-79
2022/01/30 06:13:37;;;;;;;;;3.80;3.20;;;;;8.50;100.00;102858.31;5100468;27;44762;-81
2022/01/30 06:16:03;;;;;;;;;3.40;2.80;;;;;8.47;100.00;102861.91;5100946;27;44748;-79
2022/01/30 06:18:29;;;;;;;;;4.00;2.75;;;;;8.42;100.00;102876.19;5100684;27;45291;-81
2022/01/30 06:20:55;;;;;;;;;3.25;2.75;;;;;8.39;100.00;102873.59;5099142;27;45362;-79
2022/01/30 06:23:22;;;;;;;;;3.75;3.25;;;;;8.35;100.00;102877.19;5100429;27;45362;-79
2022/01/30 06:25:48;;;;;;;;;7.50;5.00;;;;;8.36;100.00;102884.22;5099792;27;45415;-80
2022/01/30 06:28:15;;;;;;;;;4.75;2.00;;;;;8.33;100.00;102879.00;5099461;27;45387;-80
2022/01/30 06:30:41;;;;;;;;;3.00;2.00;;;;;8.32;100.00;102878.13;5099619;27;45431;-81
2022/01/30 06:33:06;;;;;;;;;6.25;3.50;;;;;8.33;100.00;102887.81;5099027;27;45264;-81
2022/01/30 06:35:32;;;;;;;;;6.00;2.75;;;;;8.31;100.00;102879.00;5098677;27;44733;-79
2022/01/30 06:37:57;;;;;;;;;8.25;4.75;;;;;8.27;100.00;102880.03;5081464;27;45381;-79
2022/01/30 06:40:22;;;;;;;;;4.75;3.25;;;;;8.25;100.00;102881.81;5103875;27;45445;-80
2022/01/30 06:42:48;;;;;;;;;8.00;3.25;;;;;8.22;100.00;102884.56;5102910;27;44796;-79
2022/01/30 06:45:13;;;;;;;;;7.50;4.50;;;;;8.20;100.00;102875.75;5098957;27;45390;-79
2022/01/30 06:47:40;;;;;;;;;5.00;1.75;;;;;8.16;100.00;102872.28;5080020;27;45530;-79
2022/01/30 06:50:06;;;;;;;;;4.50;2.50;;;;;8.14;100.00;102884.72;5097931;27;45196;-80
2022/01/30 06:52:32;;;;;;;;;6.75;3.00;;;;;8.12;100.00;102883.00;5098376;27;45314;-81
2022/01/30 06:54:57;;;;;;;;;4.25;3.00;;;;;8.10;100.00;102880.38;5098755;27;45299;-78
2022/01/30 06:57:22;;;;;;;;;5.75;4.00;;;;;8.10;100.00;102887.47;5098632;27;45511;-81
2022/01/30 06:59:48;;;;;;;;;11.00;3.00;;;;;8.10;100.00;102875.09;5079685;27;45472;-80
2022/01/30 07:02:13;;;;;;;;;5.00;2.25;;;;;8.12;100.00;102878.59;5098200;27;45419;-80
2022/01/30 07:04:38;;;;;;;;;3.75;2.00;;;;;8.09;100.00;102880.44;5098290;27;45362;-80
2022/01/30 07:07:06;;;;;;;;;8.75;2.00;;;;;8.06;100.00;102884.00;5098468;27;45493;-81
2022/01/30 07:09:32;;;;;;;;;5.40;4.00;;;;;8.03;100.00;102880.56;5098382;27;45393;-80
2022/01/30 07:11:58;;;;;;;;;5.00;5.00;;;;;8.00;100.00;102881.50;5098312;27;44811;-81
2022/01/30 07:14:23;;;;;;;;;5.00;3.00;;;;;7.96;100.00;102885.97;5098563;27;44910;-80
2022/01/30 07:16:49;;;;;;;;;4.00;2.25;;;;;7.89;100.00;102879.09;5098564;27;44735;-80
2022/01/30 07:19:15;;;;;;;;;4.40;2.20;;;;;7.84;100.00;102893.31;5102193;27;45433;-82
2022/01/30 07:21:40;;;;;;;;;3.75;2.75;;;;;7.78;100.00;102896.06;5100628;27;44695;-82
2022/01/30 07:24:06;;;;;;;;;4.00;4.00;;;;;7.73;100.00;102898.81;5098796;27;45383;-81
2022/01/30 07:26:32;;;;;;;;;9.50;4.00;;;;;7.67;100.00;102907.75;5100961;27;45375;-81
2022/01/30 07:28:59;;;;;;;;;12.25;4.25;;;;;7.63;100.00;102906.06;5098637;27;45442;-85
2022/01/30 07:31:24;;;;;;;;;3.60;3.00;;;;;7.58;100.00;102910.56;5099216;27;44792;-82
2022/01/30 07:33:49;;;;;;;;;5.25;3.75;;;;;7.55;100.00;102915.94;5100733;27;44893;-82
2022/01/30 07:36:15;;;;;;;;;5.25;2.00;;;;;7.55;100.00;102923.88;5100392;27;44903;-83
2022/01/30 07:38:42;;;;;;;;;3.50;2.25;;;;;7.55;100.00;102934.44;5100013;27;45296;-82
2022/01/30 07:41:08;;;;;;;;;3.40;3.00;;;;;7.55;100.00;102933.59;5099181;27;44845;-83
2022/01/30 07:43:34;;;;;;;;;3.60;3.00;;;;;7.56;100.00;102943.25;5100002;27;45368;-82
2022/01/30 07:45:59;;;;;;;;;7.25;2.00;;;;;7.58;100.00;102939.66;5098913;27;45482;-82
2022/01/30 07:48:25;;;;;;;;;4.50;2.00;;;;;7.56;100.00;102935.31;5098550;27;45057;-84
2022/01/30 07:50:50;;;;;;;;;6.50;4.00;;;;;7.57;100.00;102937.06;5062836;27;44901;-81
2022/01/30 07:53:16;;;;;;;;;3.25;2.00;;;;;7.57;100.00;102942.34;5099744;27;45379;-83
2022/01/30 07:55:41;;;;;;;;;12.00;4.75;;;;;7.62;100.00;102945.78;5100661;27;44783;-83
2022/01/30 07:58:07;;;;;;;;;8.00;3.00;;;;;7.63;100.00;102943.09;5084719;27;45372;-83
2022/01/30 08:00:32;;;;;;;;;4.25;4.00;;;;;7.66;100.00;102950.09;5098726;27;44773;-83
2022/01/30 08:02:57;;;;;;;;;11.50;3.50;;;;;7.72;100.00;102952.63;5080203;27;44871;-82
2022/01/30 08:05:23;;;;;;;;;9.25;3.00;;;;;7.77;100.00;102950.75;5108784;27;45200;-83
2022/01/30 08:07:48;;;;;;;;;6.75;3.25;;;;;7.82;100.00;102948.91;5101127;27;46042;-81
2022/01/30 08:10:13;;;;;;;;;6.00;3.50;;;;;7.88;100.00;102956.75;5119724;27;45351;-85
2022/01/30 08:12:39;;;;;;;;;5.25;4.00;;;;;7.98;100.00;102960.94;5120053;27;45302;-83
2022/01/30 08:15:05;;;;;;;;;6.25;4.00;;;;;8.07;100.00;102961.63;5122890;27;44804;-83
2022/01/30 08:17:33;;;;;;;;;13.00;6.50;;;;;8.10;100.00;102969.53;5099319;27;46572;-82
2022/01/30 08:19:59;;;;;;;;;4.40;3.20;;;;;8.13;100.00;102964.19;5120029;27;44838;-82
2022/01/30 08:22:28;;;;;;;;;5.25;3.50;;;;;8.16;100.00;102966.72;5120931;27;45252;-83
2022/01/30 08:24:54;;;;;;;;;6.00;4.75;;;;;8.22;100.00;102964.00;5101471;27;44837;-82
2022/01/30 08:27:19;;;;;;;;;5.50;4.75;;;;;8.22;100.00;102967.50;5120452;27;45980;-82
2022/01/30 08:29:44;;;;;;;;;5.00;4.00;;;;;8.18;100.00;102960.53;5127164;27;45355;-83
2022/01/30 08:32:11;;;;;;;;;13.00;5.00;;;;;8.21;100.00;102959.56;5103458;27;44765;-83
2022/01/30 08:34:40;;;;;;;;;7.00;3.00;;;;;8.21;100.00;102959.56;5104018;27;45275;-83
2022/01/30 08:37:06;;;;;;;;;4.60;4.00;;;;;8.25;100.00;102953.31;5123953;27;45204;-83
2022/01/30 08:39:32;;;;;;;;;8.50;5.00;;;;;8.28;100.00;102962.97;5120314;27;45459;-82
2022/01/30 08:42:00;;;;;;;;;9.60;3.60;;;;;8.23;100.00;102955.13;5103142;27;44766;-84
2022/01/30 08:44:25;;;;;;;;;7.00;4.50;;;;;8.20;100.00;102968.41;5083081;27;44808;-84
2022/01/30 08:46:51;;;;;;;;;7.00;4.50;;;;;8.17;100.00;102961.44;5102134;27;44984;-82
2022/01/30 08:49:16;;;;;;;;;9.00;4.00;;;;;8.27;100.00;102953.25;5081586;27;45318;-84
2022/01/30 08:51:42;;;;;;;;;3.25;3.25;;;;;8.33;100.00;102951.38;5101352;27;45946;-84
2022/01/30 08:54:07;;;;;;;;;3.50;2.25;;;;;8.39;100.00;102950.41;5082499;27;45331;-83
2022/01/30 08:56:33;;;;;;;;;5.00;3.25;;;;;8.37;100.00;102954.88;5104251;27;45173;-83
2022/01/30 08:58:58;;;;;;;;;1.75;1.25;;;;;8.37;100.00;102966.31;5101491;27;44736;-84
2022/01/30 09:01:24;;;;;;;;;6.00;3.75;;;;;8.30;100.00;102969.09;5102634;27;45224;-83
2022/01/30 09:03:50;;;;;;;;;5.75;3.00;;;;;8.33;100.00;102966.41;5117686;27;45621;-84
2022/01/30 09:06:15;;;;;;;;;6.25;2.75;;;;;8.36;100.00;102955.72;5125149;27;45396;-82
2022/01/30 09:08:41;;;;;;;;;5.25;3.50;;;;;8.39;100.00;102968.94;5124159;27;45421;-83
2022/01/30 09:11:07;;;;;;;;;5.00;3.00;;;;;8.37;100.00;102971.63;5125342;27;44863;-84
2022/01/30 09:13:32;;;;;;;;;4.00;2.25;;;;;8.37;100.00;102965.47;5126760;27;45295;-85
2022/01/30 09:15:59;;;;;;;;;5.00;4.25;;;;;8.42;100.00;102974.19;5127105;27;45159;-84
2022/01/30 09:18:26;;;;;;;;;7.60;4.00;;;;;8.44;100.00;102956.47;5122161;27;45326;-84
2022/01/30 09:20:53;;;;;;;;;3.00;2.20;;;;;8.45;100.00;102964.38;5100356;27;44853;-82
2022/01/30 09:23:18;;;;;;;;;7.25;5.00;;;;;8.43;100.00;102966.19;5117800;27;44886;-84
2022/01/30 09:25:46;;;;;;;;;4.75;2.50;;;;;8.43;100.00;102967.97;5114373;27;45366;-84
2022/01/30 09:28:11;;;;;;;;;4.00;2.60;;;;;8.47;100.00;102974.94;5091455;27;45252;-83
2022/01/30 09:30:36;;;;;;;;;5.25;3.00;;;;;8.45;100.00;102974.09;5102078;27;45415;-84
2022/01/30 09:33:02;;;;;;;;;10.00;3.50;;;;;8.50;100.00;102970.44;5117928;27;44823;-82
2022/01/30 09:35:27;;;;;;;;;3.00;3.00;;;;;8.64;100.00;102970.13;5099348;27;47056;-85
2022/01/30 09:37:53;;;;;;;;;4.00;4.00;;;;;8.65;100.00;102981.59;5117466;27;44770;-84
2022/01/30 09:40:19;;;;;;;;;6.00;4.25;;;;;8.69;100.00;102977.97;5098517;27;45383;-83
2022/01/30 09:42:46;;;;;;;;;4.00;2.75;;;;;8.70;100.00;102982.34;5117184;27;44895;-85
2022/01/30 09:45:14;;;;;;;;;9.00;3.75;;;;;8.73;100.00;102975.22;5117542;27;45428;-84
2022/01/30 09:47:41;;;;;;;;;6.80;4.20;;;;;8.83;100.00;102975.88;5116890;27;45417;-83
2022/01/30 09:50:08;;;;;;;;;6.20;4.00;;;;;8.78;100.00;102969.81;5117762;27;44769;-82
2022/01/30 09:52:34;;;;;;;;;3.25;2.00;;;;;8.83;100.00;102980.28;5118414;27;44945;-84
2022/01/30 09:55:00;;;;;;;;;3.00;2.40;;;;;8.85;100.00;102981.13;5120527;27;45143;-85
2022/01/30 09:57:25;;;;;;;;;9.75;2.75;;;;;8.91;100.00;102979.22;5102361;27;45323;-83
2022/01/30 09:59:51;;;;;;;;;6.50;3.75;;;;;8.85;100.00;102976.72;5119019;27;45468;-85
2022/01/30 10:02:16;;;;;;;;;6.25;5.00;;;;;8.85;100.00;102976.72;5118169;27;45377;-84
2022/01/30 10:04:42;;;;;;;;;6.50;4.00;;;;;8.91;100.00;102973.91;5115820;27;45499;-83
2022/01/30 10:07:14;;;;;;;;;5.25;3.25;;;;;8.88;100.00;102973.09;5096550;27;44908;-84
2022/01/30 10:09:50;;;;;;;;;6.80;2.80;;;;;8.85;100.00;102976.72;5109924;27;45340;-82
2022/01/30 10:12:20;;;;;;;;;5.50;4.00;;;;;8.90;100.00;102972.19;5102168;27;44869;-82
2022/01/30 10:15:04;;;;;;;;;10.25;5.00;;;;;8.92;100.00;102980.94;5111367;27;45246;-84
2022/01/30 10:17:49;;;;;;;;;6.60;4.00;;;;;9.03;100.00;102980.69;5091189;27;45390;-83
2022/01/30 10:20:16;;;;;;;;;8.00;4.80;;;;;9.16;100.00;102974.19;5101621;27;44863;-83
2022/01/30 10:22:59;;;;;;;;;4.25;4.25;;;;;9.27;100.00;102972.13;5120347;27;45315;-83
2022/01/30 10:25:33;;;;;;;;;7.25;4.00;;;;;9.36;100.00;102973.66;5120226;27;45285;-83
2022/01/30 10:28:10;;;;;;;;;5.00;5.00;;;;;9.40;100.00;102972.69;5120018;27;45396;-85
2022/01/30 10:30:58;;;;;;;;;6.00;3.60;;;;;9.40;100.00;102967.38;5101956;27;45205;-83
2022/01/30 10:33:39;;;;;;;;;4.40;3.80;;;;;9.45;100.00;102977.88;5122443;27;45278;-82
2022/01/30 10:36:08;;;;;;;;;5.40;3.80;;;;;9.47;100.00;102971.59;5104211;27;45410;-83
2022/01/30 10:38:39;;;;;;;;;6.60;6.60;;;;;9.58;100.00;102974.00;5099898;27;45337;-83
2022/01/30 10:41:20;;;;;;;;;8.75;5.25;;;;;9.70;100.00;102968.31;5100222;27;45382;-83
2022/01/30 10:44:03;;;;;;;;;10.00;6.20;;;;;9.78;100.00;102958.38;5111383;27;44912;-84
2022/01/30 10:46:49;;;;;;;;;6.00;6.00;;;;;9.91;100.00;102965.97;5113112;27;45275;-82
2022/01/30 10:49:16;;;;;;;;;6.60;4.00;;;;;10.01;100.00;102970.16;5080833;27;44717;-82
2022/01/30 10:51:55;;;;;;;;;10.60;8.40;;;;;10.08;100.00;102963.72;5100391;27;44790;-82
2022/01/30 10:54:21;;;;;;;;;8.80;7.00;;;;;10.13;100.00;102964.47;5099736;27;44718;-80
2022/01/30 10:56:47;;;;;;;;;9.40;5.20;;;;;10.01;100.00;102962.19;5098263;27;45364;-82
2022/01/30 10:59:16;;;;;;;;;9.00;6.00;;;;;10.01;100.00;102960.38;5111659;27;44752;-83
2022/01/30 11:01:45;;;;;;;;;11.40;7.60;;;;;10.03;100.00;102958.53;5119852;27;44708;-82
2022/01/30 11:04:28;;;;;;;;;5.60;5.00;;;;;10.01;100.00;102956.88;5120134;27;44769;-83
2022/01/30 11:06:55;;;;;;;;;11.40;7.80;;;;;10.17;100.00;102959.94;5120239;27;45371;-81
2022/01/30 11:09:26;;;;;;;;;9.60;7.00;;;;;10.29;100.00;102952.47;5124111;27;45463;-83
2022/01/30 11:12:06;;;;;;;;;7.80;4.80;;;;;10.39;100.00;102963.69;5129718;27;44877;-83
2022/01/30 11:14:39;;;;;;;;;8.20;5.00;;;;;10.38;100.00;102953.13;5123693;27;44853;-83
2022/01/30 11:17:08;;;;;;;;;7.40;4.80;;;;;10.33;100.00;102955.06;5126467;27;45482;-83
2022/01/30 11:19:42;;;;;;;;;9.00;5.00;;;;;10.27;100.00;102950.81;5122377;27;45292;-83
2022/01/30 11:22:15;;;;;;;;;5.60;4.00;;;;;10.12;100.00;102944.13;5120193;27;44834;-83
2022/01/30 11:24:49;;;;;;;;;11.50;6.25;;;;;9.98;100.00;102949.84;5118896;27;44782;-83
2022/01/30 11:27:19;;;;;;;;;7.00;7.00;;;;;9.99;100.00;102943.63;5118948;27;45547;-82
2022/01/30 11:29:45;;;;;;;;;10.00;7.20;;;;;10.10;100.00;102940.63;5100189;27;45429;-83
2022/01/30 11:32:11;;;;;;;;;12.20;11.00;;;;;10.23;100.00;102938.50;5119012;27;45479;-82
2022/01/30 11:34:39;;;;;;;;;8.40;6.80;;;;;10.12;100.00;102930.00;5118883;27;44824;-82
2022/01/30 11:37:06;;;;;;;;;8.00;7.40;;;;;10.01;100.00;102928.53;5118705;27;45446;-82
2022/01/30 11:39:32;;;;;;;;;10.00;6.80;;;;;10.13;100.00;102923.75;5117633;27;45270;-83
2022/01/30 11:42:08;;;;;;;;;5.40;4.40;;;;;10.06;100.00;102915.13;5118634;27;44831;-83
2022/01/30 11:44:33;;;;;;;;;5.50;5.00;;;;;10.10;100.00;102929.16;5117524;27;44804;-82
2022/01/30 11:46:59;;;;;;;;;8.75;6.50;;;;;10.05;100.00;102923.97;5099854;27;45545;-83
2022/01/30 11:49:55;;;;;;;;;5.50;5.50;;;;;10.04;100.00;102914.28;5108168;27;45531;-83
2022/01/30 11:52:41;;;;;;;;;5.40;4.00;;;;;10.05;100.00;102905.38;5122483;27;45212;-83
2022/01/30 11:55:06;;;;;;;;;9.75;8.00;;;;;10.19;100.00;102903.19;5118846;27;45317;-82
2022/01/30 11:57:32;;;;;;;;;12.50;6.00;;;;;10.39;100.00;102909.69;5118230;27;45396;-82
2022/01/30 12:00:01;;;;;;;;;17.75;12.25;;;;;10.64;100.00;102900.03;5118287;27;45389;-84
2022/01/30 12:02:30;;;;;;;;;15.40;9.20;;;;;10.92;100.00;102902.63;5118223;27;44852;-82
2022/01/30 12:05:07;;;;;;;;;8.50;5.25;;;;;11.05;100.00;102890.66;5118095;27;45604;-83
2022/01/30 12:07:36;;;;;;;;;6.80;4.00;;;;;11.04;100.00;102890.72;5118859;27;45240;-82
2022/01/30 12:10:27;;;;;;;;;10.00;7.00;;;;;10.95;100.00;102894.56;5118245;27;44881;-83
2022/01/30 12:12:57;;;;;;;;;14.20;8.80;;;;;10.76;100.00;102890.78;5114871;27;44930;-83
2022/01/30 12:15:45;;;;;;;;;8.00;8.00;;;;;10.50;100.00;102892.50;5119476;27;45245;-83